sensor_id;sensor_type;location;lat;lon;timestamp;temperature;humidity
23783;DHT22;12071;50.850;4.446;2022-09-17T00:01:04;10.90;99.90
23783;DHT22;12071;50.850;4.446;2022-09-17T00:03:30;11.10;99.90
23783;DHT22;12071;50.850;4.446;2022-09-17T00:06:03;11.00;99.90
23783;DHT22;12071;50.850;4.446;2022-09-17T00:08:29;11.00;99.90
23783;DHT22;12071;50.850;4.446;2022-09-17T00:10:55;11.00;99.90
23783;DHT22;12071;50.850;4.446;2022-09-17T00:13:21;11.00;99.90
23783;DHT22;12071;50.850;4.446;2022-09-17T00:15:47;11.10;99.90
23783;DHT22;12071;50.850;4.446;2022-09-17T00:18:13;11.00;99.90
23783;DHT22;12071;50.850;4.446;2022-09-17T00:20:44;10.90;99.90
23783;DHT22;12071;50.850;4.446;2022-09-17T00:23:10;11.00;99.90
23783;DHT22;12071;50.850;4.446;2022-09-17T00:25:37;10.90;99.90
23783;DHT22;12071;50.850;4.446;2022-09-17T00:28:03;10.90;99.90
23783;DHT22;12071;50.850;4.446;2022-09-17T00:30:29;11.00;99.90
23783;DHT22;12071;50.850;4.446;2022-09-17T00:32:54;10.90;99.90
23783;DHT22;12071;50.850;4.446;2022-09-17T00:35:26;11.00;99.90
23783;DHT22;12071;50.850;4.446;2022-09-17T00:37:52;11.10;99.90
23783;DHT22;12071;50.850;4.446;2022-09-17T00:40:18;11.10;99.90
23783;DHT22;12071;50.850;4.446;2022-09-17T00:42:45;11.10;99.90
23783;DHT22;12071;50.850;4.446;2022-09-17T00:45:11;11.20;99.90
23783;DHT22;12071;50.850;4.446;2022-09-17T00:50:29;11.30;99.90
23783;DHT22;12071;50.850;4.446;2022-09-17T00:53:05;11.10;99.90
23783;DHT22;12071;50.850;4.446;2022-09-17T00:55:34;11.10;99.90
23783;DHT22;12071;50.850;4.446;2022-09-17T00:58:03;11.20;99.90
23783;DHT22;12071;50.850;4.446;2022-09-17T01:00:30;11.30;99.90
23783;DHT22;12071;50.850;4.446;2022-09-17T01:02:57;11.20;99.90
23783;DHT22;12071;50.850;4.446;2022-09-17T01:08:28;11.20;99.90
23783;DHT22;12071;50.850;4.446;2022-09-17T01:16:33;11.40;99.90
23783;DHT22;12071;50.850;4.446;2022-09-17T01:22:12;11.50;99.20
23783;DHT22;12071;50.850;4.446;2022-09-17T01:27:57;11.40;99.50
23783;DHT22;12071;50.850;4.446;2022-09-17T01:38:49;11.20;99.90
23783;DHT22;12071;50.850;4.446;2022-09-17T01:41:29;11.50;99.90
23783;DHT22;12071;50.850;4.446;2022-09-17T01:44:01;11.40;99.90
23783;DHT22;12071;50.850;4.446;2022-09-17T01:46:36;11.50;99.90
23783;DHT22;12071;50.850;4.446;2022-09-17T01:49:05;11.50;99.90
23783;DHT22;12071;50.850;4.446;2022-09-17T01:51:45;11.50;99.90
23783;DHT22;12071;50.850;4.446;2022-09-17T01:54:24;11.50;99.90
23783;DHT22;12071;50.850;4.446;2022-09-17T01:57:02;11.50;99.90
23783;DHT22;12071;50.850;4.446;2022-09-17T01:59:33;11.50;99.90
23783;DHT22;12071;50.850;4.446;2022-09-17T02:02:14;11.50;99.90
23783;DHT22;12071;50.850;4.446;2022-09-17T02:04:56;11.60;99.90
23783;DHT22;12071;50.850;4.446;2022-09-17T02:07:23;11.80;99.90
23783;DHT22;12071;50.850;4.446;2022-09-17T02:10:02;11.60;98.40
23783;DHT22;12071;50.850;4.446;2022-09-17T02:12:36;11.50;99.00
23783;DHT22;12071;50.850;4.446;2022-09-17T02:15:07;11.50;99.70
23783;DHT22;12071;50.850;4.446;2022-09-17T02:17:47;11.40;99.90
23783;DHT22;12071;50.850;4.446;2022-09-17T02:20:14;11.40;99.90
23783;DHT22;12071;50.850;4.446;2022-09-17T02:22:47;11.50;99.90
23783;DHT22;12071;50.850;4.446;2022-09-17T02:25:21;11.60;99.90
23783;DHT22;12071;50.850;4.446;2022-09-17T02:30:20;11.40;99.90
23783;DHT22;12071;50.850;4.446;2022-09-17T02:32:45;11.30;99.90
23783;DHT22;12071;50.850;4.446;2022-09-17T02:35:12;11.20;99.90
23783;DHT22;12071;50.850;4.446;2022-09-17T02:37:43;11.20;99.90
23783;DHT22;12071;50.850;4.446;2022-09-17T02:40:11;11.20;99.90
23783;DHT22;12071;50.850;4.446;2022-09-17T02:43:20;11.20;99.90
23783;DHT22;12071;50.850;4.446;2022-09-17T02:59:24;11.40;99.90
23783;DHT22;12071;50.850;4.446;2022-09-17T03:04:34;11.50;99.90
23783;DHT22;12071;50.850;4.446;2022-09-17T03:07:06;11.40;99.90
23783;DHT22;12071;50.850;4.446;2022-09-17T03:09:34;11.40;99.90
23783;DHT22;12071;50.850;4.446;2022-09-17T03:11:59;11.40;99.90
23783;DHT22;12071;50.850;4.446;2022-09-17T03:14:26;11.50;99.90
23783;DHT22;12071;50.850;4.446;2022-09-17T03:16:51;11.40;99.90
23783;DHT22;12071;50.850;4.446;2022-09-17T03:19:17;11.40;99.90
23783;DHT22;12071;50.850;4.446;2022-09-17T03:21:43;11.20;99.90
23783;DHT22;12071;50.850;4.446;2022-09-17T03:24:08;11.10;99.90
23783;DHT22;12071;50.850;4.446;2022-09-17T03:26:36;11.10;99.90
23783;DHT22;12071;50.850;4.446;2022-09-17T03:29:02;11.00;99.90
23783;DHT22;12071;50.850;4.446;2022-09-17T03:31:28;10.90;99.90
23783;DHT22;12071;50.850;4.446;2022-09-17T03:33:53;10.90;99.90
23783;DHT22;12071;50.850;4.446;2022-09-17T03:36:19;10.90;99.90
23783;DHT22;12071;50.850;4.446;2022-09-17T03:38:45;11.00;99.90
23783;DHT22;12071;50.850;4.446;2022-09-17T03:41:10;11.10;99.90
23783;DHT22;12071;50.850;4.446;2022-09-17T03:43:36;11.40;99.90
23783;DHT22;12071;50.850;4.446;2022-09-17T03:46:02;11.40;99.90
23783;DHT22;12071;50.850;4.446;2022-09-17T03:48:27;11.30;99.90
23783;DHT22;12071;50.850;4.446;2022-09-17T03:50:54;11.10;99.90
23783;DHT22;12071;50.850;4.446;2022-09-17T03:53:19;11.10;99.90
23783;DHT22;12071;50.850;4.446;2022-09-17T03:55:45;11.00;99.90
23783;DHT22;12071;50.850;4.446;2022-09-17T03:58:10;11.00;99.90
23783;DHT22;12071;50.850;4.446;2022-09-17T04:00:36;11.00;99.90
23783;DHT22;12071;50.850;4.446;2022-09-17T04:03:03;11.10;99.90
23783;DHT22;12071;50.850;4.446;2022-09-17T04:05:29;11.00;99.90
23783;DHT22;12071;50.850;4.446;2022-09-17T04:07:55;10.90;99.90
23783;DHT22;12071;50.850;4.446;2022-09-17T04:10:20;11.10;99.90
23783;DHT22;12071;50.850;4.446;2022-09-17T04:12:47;10.90;99.90
23783;DHT22;12071;50.850;4.446;2022-09-17T04:15:12;10.80;99.90
23783;DHT22;12071;50.850;4.446;2022-09-17T04:17:38;10.70;99.90
23783;DHT22;12071;50.850;4.446;2022-09-17T04:20:04;10.80;99.90
23783;DHT22;12071;50.850;4.446;2022-09-17T04:22:30;10.80;99.90
23783;DHT22;12071;50.850;4.446;2022-09-17T04:24:56;10.70;99.90
23783;DHT22;12071;50.850;4.446;2022-09-17T04:27:22;10.70;99.90
23783;DHT22;12071;50.850;4.446;2022-09-17T04:29:49;10.60;99.90
23783;DHT22;12071;50.850;4.446;2022-09-17T04:32:14;10.50;99.90
23783;DHT22;12071;50.850;4.446;2022-09-17T04:34:40;10.50;99.90
23783;DHT22;12071;50.850;4.446;2022-09-17T04:37:06;10.50;99.90
23783;DHT22;12071;50.850;4.446;2022-09-17T04:39:31;10.40;99.90
23783;DHT22;12071;50.850;4.446;2022-09-17T04:41:57;10.50;99.90
23783;DHT22;12071;50.850;4.446;2022-09-17T04:44:23;10.50;99.90
23783;DHT22;12071;50.850;4.446;2022-09-17T04:46:48;10.50;99.90
23783;DHT22;12071;50.850;4.446;2022-09-17T04:49:14;10.40;99.90
23783;DHT22;12071;50.850;4.446;2022-09-17T04:51:39;10.50;99.90
23783;DHT22;12071;50.850;4.446;2022-09-17T04:54:05;10.60;99.90
23783;DHT22;12071;50.850;4.446;2022-09-17T04:56:31;10.70;99.90
23783;DHT22;12071;50.850;4.446;2022-09-17T04:58:56;10.70;99.90
23783;DHT22;12071;50.850;4.446;2022-09-17T05:01:22;10.60;99.90
23783;DHT22;12071;50.850;4.446;2022-09-17T05:03:48;10.60;99.90
23783;DHT22;12071;50.850;4.446;2022-09-17T05:06:14;10.60;99.90
23783;DHT22;12071;50.850;4.446;2022-09-17T05:08:39;10.70;99.90
23783;DHT22;12071;50.850;4.446;2022-09-17T05:11:05;10.70;99.90
23783;DHT22;12071;50.850;4.446;2022-09-17T05:13:30;10.60;99.90
23783;DHT22;12071;50.850;4.446;2022-09-17T05:15:56;10.60;99.90
23783;DHT22;12071;50.850;4.446;2022-09-17T05:18:22;10.60;99.90
23783;DHT22;12071;50.850;4.446;2022-09-17T05:20:47;10.70;99.90
23783;DHT22;12071;50.850;4.446;2022-09-17T05:23:13;10.60;99.90
23783;DHT22;12071;50.850;4.446;2022-09-17T05:25:39;10.50;99.90
23783;DHT22;12071;50.850;4.446;2022-09-17T05:28:05;10.50;99.90
23783;DHT22;12071;50.850;4.446;2022-09-17T05:30:32;10.40;99.90
23783;DHT22;12071;50.850;4.446;2022-09-17T05:32:59;10.40;99.90
23783;DHT22;12071;50.850;4.446;2022-09-17T05:35:24;10.50;99.90
23783;DHT22;12071;50.850;4.446;2022-09-17T05:37:50;10.50;99.90
23783;DHT22;12071;50.850;4.446;2022-09-17T05:40:16;10.50;99.90
23783;DHT22;12071;50.850;4.446;2022-09-17T05:42:41;10.80;99.90
23783;DHT22;12071;50.850;4.446;2022-09-17T05:45:07;10.70;99.90
23783;DHT22;12071;50.850;4.446;2022-09-17T05:47:33;10.70;99.90
23783;DHT22;12071;50.850;4.446;2022-09-17T05:49:59;10.70;99.90
23783;DHT22;12071;50.850;4.446;2022-09-17T05:52:26;10.60;99.90
23783;DHT22;12071;50.850;4.446;2022-09-17T05:54:53;10.60;99.90
23783;DHT22;12071;50.850;4.446;2022-09-17T05:57:19;10.80;99.90
23783;DHT22;12071;50.850;4.446;2022-09-17T05:59:44;10.70;99.90
23783;DHT22;12071;50.850;4.446;2022-09-17T06:02:13;10.80;99.90
23783;DHT22;12071;50.850;4.446;2022-09-17T06:04:39;10.90;99.90
23783;DHT22;12071;50.850;4.446;2022-09-17T06:07:05;11.00;99.90
23783;DHT22;12071;50.850;4.446;2022-09-17T06:09:35;10.90;99.90
23783;DHT22;12071;50.850;4.446;2022-09-17T06:12:02;10.90;99.90
23783;DHT22;12071;50.850;4.446;2022-09-17T06:14:29;10.90;99.90
23783;DHT22;12071;50.850;4.446;2022-09-17T06:16:55;10.90;99.90
23783;DHT22;12071;50.850;4.446;2022-09-17T06:19:21;10.80;99.90
23783;DHT22;12071;50.850;4.446;2022-09-17T06:21:47;10.90;99.90
23783;DHT22;12071;50.850;4.446;2022-09-17T06:24:15;11.00;99.90
23783;DHT22;12071;50.850;4.446;2022-09-17T06:26:40;11.00;99.90
23783;DHT22;12071;50.850;4.446;2022-09-17T06:29:06;11.20;99.90
23783;DHT22;12071;50.850;4.446;2022-09-17T06:31:32;11.20;99.90
23783;DHT22;12071;50.850;4.446;2022-09-17T06:33:57;11.30;99.90
23783;DHT22;12071;50.850;4.446;2022-09-17T06:36:23;11.40;99.90
23783;DHT22;12071;50.850;4.446;2022-09-17T06:38:48;11.40;99.90
23783;DHT22;12071;50.850;4.446;2022-09-17T06:41:14;11.40;99.90
23783;DHT22;12071;50.850;4.446;2022-09-17T06:43:41;11.50;99.90
23783;DHT22;12071;50.850;4.446;2022-09-17T06:46:08;11.50;99.90
23783;DHT22;12071;50.850;4.446;2022-09-17T06:48:35;11.50;99.90
23783;DHT22;12071;50.850;4.446;2022-09-17T06:51:06;11.60;99.90
23783;DHT22;12071;50.850;4.446;2022-09-17T06:53:32;11.70;99.90
23783;DHT22;12071;50.850;4.446;2022-09-17T06:55:59;11.80;99.40
23783;DHT22;12071;50.850;4.446;2022-09-17T06:58:25;11.70;97.00
23783;DHT22;12071;50.850;4.446;2022-09-17T07:00:51;11.60;96.60
23783;DHT22;12071;50.850;4.446;2022-09-17T07:03:16;11.60;96.80
23783;DHT22;12071;50.850;4.446;2022-09-17T07:05:42;11.80;97.90
23783;DHT22;12071;50.850;4.446;2022-09-17T07:08:08;11.90;97.10
23783;DHT22;12071;50.850;4.446;2022-09-17T07:10:35;11.70;96.20
23783;DHT22;12071;50.850;4.446;2022-09-17T07:13:02;11.80;95.80
23783;DHT22;12071;50.850;4.446;2022-09-17T07:15:27;12.00;96.70
23783;DHT22;12071;50.850;4.446;2022-09-17T07:17:53;12.00;95.90
23783;DHT22;12071;50.850;4.446;2022-09-17T07:20:19;12.10;94.80
23783;DHT22;12071;50.850;4.446;2022-09-17T07:22:44;12.00;93.70
23783;DHT22;12071;50.850;4.446;2022-09-17T07:25:10;12.00;95.60
23783;DHT22;12071;50.850;4.446;2022-09-17T07:27:36;12.00;94.70
23783;DHT22;12071;50.850;4.446;2022-09-17T07:30:02;11.90;95.20
23783;DHT22;12071;50.850;4.446;2022-09-17T07:32:29;12.10;97.00
23783;DHT22;12071;50.850;4.446;2022-09-17T07:34:55;12.00;95.70
23783;DHT22;12071;50.850;4.446;2022-09-17T07:37:21;11.90;96.70
23783;DHT22;12071;50.850;4.446;2022-09-17T07:39:47;11.80;95.50
23783;DHT22;12071;50.850;4.446;2022-09-17T07:42:12;12.00;98.30
23783;DHT22;12071;50.850;4.446;2022-09-17T07:44:38;12.10;96.60
23783;DHT22;12071;50.850;4.446;2022-09-17T07:47:04;12.30;96.90
23783;DHT22;12071;50.850;4.446;2022-09-17T07:49:30;12.40;94.70
23783;DHT22;12071;50.850;4.446;2022-09-17T07:51:56;12.50;92.90
23783;DHT22;12071;50.850;4.446;2022-09-17T07:54:22;12.80;91.90
23783;DHT22;12071;50.850;4.446;2022-09-17T07:56:49;12.70;88.10
23783;DHT22;12071;50.850;4.446;2022-09-17T07:59:14;12.80;90.00
23783;DHT22;12071;50.850;4.446;2022-09-17T08:01:40;12.80;89.50
23783;DHT22;12071;50.850;4.446;2022-09-17T08:04:06;13.10;90.40
23783;DHT22;12071;50.850;4.446;2022-09-17T08:06:36;13.10;79.50
23783;DHT22;12071;50.850;4.446;2022-09-17T08:09:04;12.80;82.50
23783;DHT22;12071;50.850;4.446;2022-09-17T08:11:30;12.80;82.80
23783;DHT22;12071;50.850;4.446;2022-09-17T08:13:56;13.00;81.00
23783;DHT22;12071;50.850;4.446;2022-09-17T08:16:22;12.90;77.60
23783;DHT22;12071;50.850;4.446;2022-09-17T08:18:53;12.90;79.30
23783;DHT22;12071;50.850;4.446;2022-09-17T08:21:19;12.90;87.00
23783;DHT22;12071;50.850;4.446;2022-09-17T08:23:45;13.00;85.20
23783;DHT22;12071;50.850;4.446;2022-09-17T08:26:13;12.80;80.60
23783;DHT22;12071;50.850;4.446;2022-09-17T08:28:42;12.50;89.70
23783;DHT22;12071;50.850;4.446;2022-09-17T08:31:08;12.40;90.50
23783;DHT22;12071;50.850;4.446;2022-09-17T08:33:36;12.40;91.10
23783;DHT22;12071;50.850;4.446;2022-09-17T08:36:03;12.60;91.80
23783;DHT22;12071;50.850;4.446;2022-09-17T08:38:31;12.80;93.50
23783;DHT22;12071;50.850;4.446;2022-09-17T08:43:41;13.10;84.70
23783;DHT22;12071;50.850;4.446;2022-09-17T08:46:10;13.40;83.30
23783;DHT22;12071;50.850;4.446;2022-09-17T08:54:36;13.50;73.80
23783;DHT22;12071;50.850;4.446;2022-09-17T09:00:08;13.50;66.90
23783;DHT22;12071;50.850;4.446;2022-09-17T09:05:38;13.70;66.60
23783;DHT22;12071;50.850;4.446;2022-09-17T09:08:17;13.90;65.90
23783;DHT22;12071;50.850;4.446;2022-09-17T09:10:50;14.10;55.20
23783;DHT22;12071;50.850;4.446;2022-09-17T09:13:18;14.30;52.20
23783;DHT22;12071;50.850;4.446;2022-09-17T09:15:58;14.40;42.00
23783;DHT22;12071;50.850;4.446;2022-09-17T09:18:28;14.20;35.80
23783;DHT22;12071;50.850;4.446;2022-09-17T09:21:25;13.80;45.10
23783;DHT22;12071;50.850;4.446;2022-09-17T09:26:44;13.50;68.40
23783;DHT22;12071;50.850;4.446;2022-09-17T09:34:37;14.10;63.10
23783;DHT22;12071;50.850;4.446;2022-09-17T09:37:27;14.00;45.90
23783;DHT22;12071;50.850;4.446;2022-09-17T09:39:54;13.90;52.70
23783;DHT22;12071;50.850;4.446;2022-09-17T09:42:34;13.80;56.90
23783;DHT22;12071;50.850;4.446;2022-09-17T09:45:12;13.90;59.20
23783;DHT22;12071;50.850;4.446;2022-09-17T09:47:48;14.40;59.70
23783;DHT22;12071;50.850;4.446;2022-09-17T09:50:36;14.80;50.00
23783;DHT22;12071;50.850;4.446;2022-09-17T09:53:13;14.80;37.10
23783;DHT22;12071;50.850;4.446;2022-09-17T09:58:46;14.00;50.00
23783;DHT22;12071;50.850;4.446;2022-09-17T10:01:17;13.90;39.60
23783;DHT22;12071;50.850;4.446;2022-09-17T10:03:45;13.80;43.60
23783;DHT22;12071;50.850;4.446;2022-09-17T10:06:16;14.00;53.80
23783;DHT22;12071;50.850;4.446;2022-09-17T10:11:32;13.90;34.90
23783;DHT22;12071;50.850;4.446;2022-09-17T10:16:39;14.20;42.50
23783;DHT22;12071;50.850;4.446;2022-09-17T10:21:35;14.40;29.10
23783;DHT22;12071;50.850;4.446;2022-09-17T10:24:02;14.30;31.90
23783;DHT22;12071;50.850;4.446;2022-09-17T10:26:34;14.50;36.60
23783;DHT22;12071;50.850;4.446;2022-09-17T10:29:01;14.30;21.80
23783;DHT22;12071;50.850;4.446;2022-09-17T10:31:48;14.20;28.30
23783;DHT22;12071;50.850;4.446;2022-09-17T10:34:29;14.20;22.60
23783;DHT22;12071;50.850;4.446;2022-09-17T10:36:55;14.00;22.60
23783;DHT22;12071;50.850;4.446;2022-09-17T10:39:30;13.90;22.80
23783;DHT22;12071;50.850;4.446;2022-09-17T10:42:11;13.90;29.70
23783;DHT22;12071;50.850;4.446;2022-09-17T10:44:38;14.00;25.20
23783;DHT22;12071;50.850;4.446;2022-09-17T10:47:21;13.70;28.80
23783;DHT22;12071;50.850;4.446;2022-09-17T10:49:59;14.10;40.40
23783;DHT22;12071;50.850;4.446;2022-09-17T10:52:30;14.50;25.80
23783;DHT22;12071;50.850;4.446;2022-09-17T11:00:25;14.00;21.90
23783;DHT22;12071;50.850;4.446;2022-09-17T11:08:29;15.00;16.80
23783;DHT22;12071;50.850;4.446;2022-09-17T11:11:09;15.00;7.50
23783;DHT22;12071;50.850;4.446;2022-09-17T11:22:01;13.90;17.30
23783;DHT22;12071;50.850;4.446;2022-09-17T11:27:41;13.80;38.30
23783;DHT22;12071;50.850;4.446;2022-09-17T11:30:20;13.60;53.40
23783;DHT22;12071;50.850;4.446;2022-09-17T11:35:20;13.30;61.90
23783;DHT22;12071;50.850;4.446;2022-09-17T11:38:16;13.10;71.30
23783;DHT22;12071;50.850;4.446;2022-09-17T11:40:56;13.00;85.80
23783;DHT22;12071;50.850;4.446;2022-09-17T11:46:33;13.30;79.50
23783;DHT22;12071;50.850;4.446;2022-09-17T11:49:05;13.30;71.60
23783;DHT22;12071;50.850;4.446;2022-09-17T11:51:40;13.50;75.60
23783;DHT22;12071;50.850;4.446;2022-09-17T11:56:57;14.10;69.00
23783;DHT22;12071;50.850;4.446;2022-09-17T11:59:40;14.30;60.10
23783;DHT22;12071;50.850;4.446;2022-09-17T12:04:44;14.90;50.40
23783;DHT22;12071;50.850;4.446;2022-09-17T12:07:21;15.00;27.30
23783;DHT22;12071;50.850;4.446;2022-09-17T12:09:55;14.90;17.50
23783;DHT22;12071;50.850;4.446;2022-09-17T12:12:24;15.10;21.50
23783;DHT22;12071;50.850;4.446;2022-09-17T12:15:14;15.50;29.30
23783;DHT22;12071;50.850;4.446;2022-09-17T12:20:34;15.40;1.00
23783;DHT22;12071;50.850;4.446;2022-09-17T12:23:03;15.60;1.00
23783;DHT22;12071;50.850;4.446;2022-09-17T12:25:43;15.50;1.00
23783;DHT22;12071;50.850;4.446;2022-09-17T12:28:22;15.20;1.00
23783;DHT22;12071;50.850;4.446;2022-09-17T12:30:57;15.70;14.20
23783;DHT22;12071;50.850;4.446;2022-09-17T12:33:48;16.00;1.00
23783;DHT22;12071;50.850;4.446;2022-09-17T12:39:24;16.00;1.00
23783;DHT22;12071;50.850;4.446;2022-09-17T12:53:43;15.50;1.00
23783;DHT22;12071;50.850;4.446;2022-09-17T13:01:54;14.60;23.70
23783;DHT22;12071;50.850;4.446;2022-09-17T13:13:02;14.50;26.20
23783;DHT22;12071;50.850;4.446;2022-09-17T13:21:16;14.10;16.70
23783;DHT22;12071;50.850;4.446;2022-09-17T13:23:46;14.10;23.00
23783;DHT22;12071;50.850;4.446;2022-09-17T13:26:14;14.10;1.00
23783;DHT22;12071;50.850;4.446;2022-09-17T13:28:44;14.80;2.00
23783;DHT22;12071;50.850;4.446;2022-09-17T13:31:10;15.00;1.00
23783;DHT22;12071;50.850;4.446;2022-09-17T13:33:53;15.00;1.00
23783;DHT22;12071;50.850;4.446;2022-09-17T13:39:41;15.70;1.00
23783;DHT22;12071;50.850;4.446;2022-09-17T13:42:27;16.20;1.00
23783;DHT22;12071;50.850;4.446;2022-09-17T13:45:20;16.30;1.00
23783;DHT22;12071;50.850;4.446;2022-09-17T13:48:09;16.10;1.00
23783;DHT22;12071;50.850;4.446;2022-09-17T13:50:41;16.90;1.00
23783;DHT22;12071;50.850;4.446;2022-09-17T13:55:42;18.50;99.90
23783;DHT22;12071;50.850;4.446;2022-09-17T14:00:59;18.80;99.90
23783;DHT22;12071;50.850;4.446;2022-09-17T14:19:42;19.90;99.90
23783;DHT22;12071;50.850;4.446;2022-09-17T14:24:36;18.40;99.90
23783;DHT22;12071;50.850;4.446;2022-09-17T14:27:08;18.50;99.90
23783;DHT22;12071;50.850;4.446;2022-09-17T14:29:42;17.80;99.90
23783;DHT22;12071;50.850;4.446;2022-09-17T14:32:16;17.20;99.90
23783;DHT22;12071;50.850;4.446;2022-09-17T14:34:46;16.80;99.90
23783;DHT22;12071;50.850;4.446;2022-09-17T14:37:14;15.80;1.00
23783;DHT22;12071;50.850;4.446;2022-09-17T14:39:40;15.50;1.00
23783;DHT22;12071;50.850;4.446;2022-09-17T14:42:13;15.20;1.00
23783;DHT22;12071;50.850;4.446;2022-09-17T14:44:49;14.70;1.00
23783;DHT22;12071;50.850;4.446;2022-09-17T14:47:17;14.20;1.00
23783;DHT22;12071;50.850;4.446;2022-09-17T14:49:44;14.10;2.30
23783;DHT22;12071;50.850;4.446;2022-09-17T14:52:31;14.00;1.00
23783;DHT22;12071;50.850;4.446;2022-09-17T14:55:24;14.10;1.00
23783;DHT22;12071;50.850;4.446;2022-09-17T14:57:54;14.80;1.20
23783;DHT22;12071;50.850;4.446;2022-09-17T15:00:24;15.00;1.00
23783;DHT22;12071;50.850;4.446;2022-09-17T15:02:54;15.60;1.00
23783;DHT22;12071;50.850;4.446;2022-09-17T15:10:43;14.60;1.00
23783;DHT22;12071;50.850;4.446;2022-09-17T15:13:16;14.60;1.00
23783;DHT22;12071;50.850;4.446;2022-09-17T15:16:04;15.00;1.00
23783;DHT22;12071;50.850;4.446;2022-09-17T15:18:35;14.90;1.00
23783;DHT22;12071;50.850;4.446;2022-09-17T15:21:04;14.80;1.00
23783;DHT22;12071;50.850;4.446;2022-09-17T15:23:32;14.80;1.00
23783;DHT22;12071;50.850;4.446;2022-09-17T15:26:00;14.90;1.00
23783;DHT22;12071;50.850;4.446;2022-09-17T15:28:32;15.10;1.00
23783;DHT22;12071;50.850;4.446;2022-09-17T15:30:59;15.10;1.00
23783;DHT22;12071;50.850;4.446;2022-09-17T15:33:32;14.80;1.00
23783;DHT22;12071;50.850;4.446;2022-09-17T15:36:00;14.80;1.00
23783;DHT22;12071;50.850;4.446;2022-09-17T15:38:28;14.90;1.00
23783;DHT22;12071;50.850;4.446;2022-09-17T15:40:55;14.50;1.00
23783;DHT22;12071;50.850;4.446;2022-09-17T15:43:36;14.50;1.30
23783;DHT22;12071;50.850;4.446;2022-09-17T15:48:49;14.70;1.00
23783;DHT22;12071;50.850;4.446;2022-09-17T15:51:26;14.60;1.00
23783;DHT22;12071;50.850;4.446;2022-09-17T15:54:00;14.40;1.00
23783;DHT22;12071;50.850;4.446;2022-09-17T15:56:33;14.20;1.00
23783;DHT22;12071;50.850;4.446;2022-09-17T15:59:04;14.10;2.10
23783;DHT22;12071;50.850;4.446;2022-09-17T16:04:07;14.70;1.00
23783;DHT22;12071;50.850;4.446;2022-09-17T16:06:35;14.50;11.10
23783;DHT22;12071;50.850;4.446;2022-09-17T16:09:00;14.40;49.40
23783;DHT22;12071;50.850;4.446;2022-09-17T16:11:29;14.40;52.10
23783;DHT22;12071;50.850;4.446;2022-09-17T16:13:57;14.10;55.30
23783;DHT22;12071;50.850;4.446;2022-09-17T16:16:34;13.70;58.90
23783;DHT22;12071;50.850;4.446;2022-09-17T16:19:01;13.50;67.00
23783;DHT22;12071;50.850;4.446;2022-09-17T16:21:26;13.60;69.20
23783;DHT22;12071;50.850;4.446;2022-09-17T16:23:53;13.50;57.10
23783;DHT22;12071;50.850;4.446;2022-09-17T16:26:21;13.50;57.30
23783;DHT22;12071;50.850;4.446;2022-09-17T16:28:49;13.70;64.20
23783;DHT22;12071;50.850;4.446;2022-09-17T16:31:17;14.10;62.80
23783;DHT22;12071;50.850;4.446;2022-09-17T16:33:43;14.40;45.80
23783;DHT22;12071;50.850;4.446;2022-09-17T16:36:09;14.50;44.30
23783;DHT22;12071;50.850;4.446;2022-09-17T16:38:35;14.60;30.60
23783;DHT22;12071;50.850;4.446;2022-09-17T16:41:04;14.40;28.50
23783;DHT22;12071;50.850;4.446;2022-09-17T16:43:30;14.20;26.60
23783;DHT22;12071;50.850;4.446;2022-09-17T16:46:21;14.30;31.10
23783;DHT22;12071;50.850;4.446;2022-09-17T16:48:50;14.30;24.60
23783;DHT22;12071;50.850;4.446;2022-09-17T16:51:16;14.40;26.40
23783;DHT22;12071;50.850;4.446;2022-09-17T16:53:42;14.40;28.30
23783;DHT22;12071;50.850;4.446;2022-09-17T16:56:12;14.40;25.40
23783;DHT22;12071;50.850;4.446;2022-09-17T16:58:39;14.40;24.80
23783;DHT22;12071;50.850;4.446;2022-09-17T17:01:11;14.30;21.80
23783;DHT22;12071;50.850;4.446;2022-09-17T17:03:38;14.10;25.50
23783;DHT22;12071;50.850;4.446;2022-09-17T17:06:04;13.80;30.40
23783;DHT22;12071;50.850;4.446;2022-09-17T17:08:31;13.50;41.50
23783;DHT22;12071;50.850;4.446;2022-09-17T17:10:57;13.60;47.70
23783;DHT22;12071;50.850;4.446;2022-09-17T17:13:23;13.50;48.60
23783;DHT22;12071;50.850;4.446;2022-09-17T17:15:48;13.60;45.00
23783;DHT22;12071;50.850;4.446;2022-09-17T17:18:19;13.50;45.20
23783;DHT22;12071;50.850;4.446;2022-09-17T17:20:45;13.40;47.30
23783;DHT22;12071;50.850;4.446;2022-09-17T17:23:12;13.50;48.50
23783;DHT22;12071;50.850;4.446;2022-09-17T17:25:38;13.60;48.30
23783;DHT22;12071;50.850;4.446;2022-09-17T17:28:06;13.60;45.50
23783;DHT22;12071;50.850;4.446;2022-09-17T17:30:32;13.60;49.30
23783;DHT22;12071;50.850;4.446;2022-09-17T17:32:57;13.40;38.40
23783;DHT22;12071;50.850;4.446;2022-09-17T17:35:25;13.30;42.20
23783;DHT22;12071;50.850;4.446;2022-09-17T17:37:50;13.40;47.40
23783;DHT22;12071;50.850;4.446;2022-09-17T17:40:16;13.30;41.00
23783;DHT22;12071;50.850;4.446;2022-09-17T17:42:42;13.10;44.60
23783;DHT22;12071;50.850;4.446;2022-09-17T17:45:09;13.10;49.30
23783;DHT22;12071;50.850;4.446;2022-09-17T17:47:35;13.20;51.10
23783;DHT22;12071;50.850;4.446;2022-09-17T17:50:01;13.30;44.10
23783;DHT22;12071;50.850;4.446;2022-09-17T17:52:27;13.40;46.70
23783;DHT22;12071;50.850;4.446;2022-09-17T17:54:52;13.30;45.40
23783;DHT22;12071;50.850;4.446;2022-09-17T17:57:18;13.40;46.70
23783;DHT22;12071;50.850;4.446;2022-09-17T17:59:44;13.40;44.40
23783;DHT22;12071;50.850;4.446;2022-09-17T18:02:10;13.30;49.90
23783;DHT22;12071;50.850;4.446;2022-09-17T18:04:36;13.30;49.40
23783;DHT22;12071;50.850;4.446;2022-09-17T18:07:02;13.20;54.40
23783;DHT22;12071;50.850;4.446;2022-09-17T18:09:27;12.90;56.50
23783;DHT22;12071;50.850;4.446;2022-09-17T18:11:53;12.90;64.20
23783;DHT22;12071;50.850;4.446;2022-09-17T18:14:19;12.90;61.10
23783;DHT22;12071;50.850;4.446;2022-09-17T18:16:45;13.00;58.80
23783;DHT22;12071;50.850;4.446;2022-09-17T18:19:10;13.00;59.20
23783;DHT22;12071;50.850;4.446;2022-09-17T18:21:36;12.90;67.30
23783;DHT22;12071;50.850;4.446;2022-09-17T18:24:02;12.90;69.20
23783;DHT22;12071;50.850;4.446;2022-09-17T18:26:28;12.80;75.40
23783;DHT22;12071;50.850;4.446;2022-09-17T18:28:54;12.90;80.80
23783;DHT22;12071;50.850;4.446;2022-09-17T18:31:22;13.10;84.70
23783;DHT22;12071;50.850;4.446;2022-09-17T18:33:53;13.10;87.20
23783;DHT22;12071;50.850;4.446;2022-09-17T18:36:19;13.00;84.10
23783;DHT22;12071;50.850;4.446;2022-09-17T18:38:44;13.10;85.50
23783;DHT22;12071;50.850;4.446;2022-09-17T18:41:11;13.00;83.20
23783;DHT22;12071;50.850;4.446;2022-09-17T18:43:38;12.90;86.00
23783;DHT22;12071;50.850;4.446;2022-09-17T18:46:04;13.00;88.80
23783;DHT22;12071;50.850;4.446;2022-09-17T18:48:30;13.00;90.20
23783;DHT22;12071;50.850;4.446;2022-09-17T18:51:09;13.00;90.20
23783;DHT22;12071;50.850;4.446;2022-09-17T18:53:36;12.90;90.10